createdAt,value
2019-04-14T00:00:29.298Z,83.21
2019-04-14T00:03:06.583Z,83.25
2019-04-14T00:05:40.823Z,83.30
2019-04-14T00:08:13.884Z,83.49
2019-04-14T00:10:46.445Z,83.49
2019-04-14T00:13:17.543Z,83.61
2019-04-14T00:15:50.761Z,83.46
2019-04-14T00:18:23.050Z,83.44
2019-04-14T00:20:55.589Z,83.44
2019-04-14T00:23:28.269Z,83.56
2019-04-14T00:26:25.451Z,83.56
2019-04-14T00:28:57.965Z,83.42
2019-04-14T00:31:30.754Z,83.48
2019-04-14T00:34:05.412Z,83.33
2019-04-14T00:36:48.138Z,83.33
2019-04-14T00:39:22.662Z,83.47
2019-04-14T00:42:05.346Z,83.26
2019-04-14T00:44:39.513Z,83.31
2019-04-14T00:47:31.246Z,83.45
2019-04-14T00:50:04.715Z,83.27
2019-04-14T00:52:37.410Z,83.50
2019-04-14T00:55:10.190Z,83.40
2019-04-14T00:57:42.203Z,83.69
2019-04-14T01:00:17.287Z,83.66
2019-04-14T01:02:47.707Z,83.54
2019-04-14T01:05:19.667Z,83.60
2019-04-14T01:07:52.333Z,83.35
2019-04-14T01:10:24.217Z,83.67
2019-04-14T01:12:56.210Z,83.58
2019-04-14T01:15:29.032Z,83.49
2019-04-14T01:18:01.391Z,83.69
2019-04-14T01:20:33.931Z,83.59
2019-04-14T01:23:06.353Z,83.93
2019-04-14T01:25:38.946Z,83.92
2019-04-14T01:28:11.241Z,83.94
2019-04-14T01:30:43.631Z,84.15
2019-04-14T01:33:16.240Z,84.22
2019-04-14T01:35:48.916Z,84.04
2019-04-14T01:38:21.238Z,84.05
2019-04-14T01:40:53.590Z,83.94
2019-04-14T01:43:26.183Z,84.05
2019-04-14T01:46:07.868Z,84.10
2019-04-14T01:48:32.465Z,84.04
2019-04-14T01:51:22.190Z,84.12
2019-04-14T01:54:12.755Z,84.27
2019-04-14T01:56:55.913Z,84.73
2019-04-14T01:59:28.346Z,85.09
2019-04-14T02:02:00.776Z,85.81
2019-04-14T02:04:32.061Z,86.05
2019-04-14T02:07:05.820Z,86.65
2019-04-14T02:09:37.958Z,86.96
2019-04-14T02:12:10.568Z,86.96
2019-04-14T02:14:43.027Z,87.06
2019-04-14T02:17:15.279Z,86.99
2019-04-14T02:19:48.020Z,86.71
2019-04-14T02:22:20.270Z,87.02
2019-04-14T02:24:52.823Z,87.45
2019-04-14T02:27:25.260Z,87.49
2019-04-14T02:29:58.105Z,87.78
2019-04-14T02:32:57.373Z,87.97
2019-04-14T02:35:47.344Z,88.21
2019-04-14T02:38:12.373Z,88.57
2019-04-14T02:43:12.839Z,89.01
2019-04-14T02:45:57.830Z,89.41
2019-04-14T02:50:47.731Z,89.99
2019-04-14T02:53:25.813Z,90.30
2019-04-14T02:56:07.690Z,90.79
2019-04-14T02:58:36.191Z,90.93
2019-04-14T03:01:07.156Z,90.97
2019-04-14T03:03:41.011Z,91.31
2019-04-14T03:08:51.212Z,91.38
2019-04-14T03:11:17.455Z,91.43
2019-04-14T03:13:52.131Z,91.39
2019-04-14T03:16:33.084Z,91.44
2019-04-14T03:19:09.542Z,91.29
2019-04-14T03:24:29.137Z,91.07
2019-04-14T03:27:06.178Z,91.19
2019-04-14T03:30:17.483Z,91.17
2019-04-14T03:32:53.185Z,91.09
2019-04-14T03:35:30.229Z,91.15
2019-04-14T03:37:45.274Z,91.22
2019-04-14T03:40:08.813Z,91.32
2019-04-14T03:42:45.949Z,90.77
2019-04-14T03:45:30.057Z,90.53
2019-04-14T03:48:02.041Z,90.68
2019-04-14T03:50:23.129Z,90.67
2019-04-14T03:52:55.754Z,90.72
2019-04-14T03:55:16.291Z,90.67
2019-04-14T03:57:37.381Z,90.78
2019-04-14T04:00:09.884Z,90.61
2019-04-14T04:02:42.314Z,90.56
2019-04-14T04:05:15.145Z,90.50
2019-04-14T04:07:47.461Z,90.44
2019-04-14T04:10:21.156Z,90.61
2019-04-14T04:12:53.812Z,90.77
2019-04-14T04:15:25.692Z,90.64
2019-04-14T04:18:00.212Z,90.44
2019-04-14T04:20:37.102Z,90.38
2019-04-14T04:23:27.162Z,89.95
2019-04-14T04:26:06.823Z,89.93
2019-04-14T04:28:53.944Z,89.96
2019-04-14T04:31:44.304Z,89.94
2019-04-14T04:34:33.909Z,90.00
2019-04-14T04:37:08.377Z,89.70
2019-04-14T04:39:45.355Z,89.30
2019-04-14T04:42:17.690Z,89.04
2019-04-14T04:44:50.931Z,89.28
2019-04-14T04:47:23.122Z,89.07
2019-04-14T04:49:55.433Z,88.85
2019-04-14T04:52:28.051Z,88.66
2019-04-14T04:55:00.238Z,88.49
2019-04-14T04:57:32.804Z,88.40
2019-04-14T05:00:07.088Z,88.79
2019-04-14T05:02:39.568Z,88.64
2019-04-14T05:05:40.549Z,88.64
2019-04-14T05:08:13.096Z,88.80
2019-04-14T05:10:46.524Z,88.66
2019-04-14T05:13:19.025Z,88.87
2019-04-14T05:15:53.218Z,88.85
2019-04-14T05:18:26.670Z,88.86
2019-04-14T05:20:59.628Z,89.05
2019-04-14T05:23:32.111Z,88.89
2019-04-14T05:26:04.877Z,88.49
2019-04-14T05:28:37.430Z,88.14
2019-04-14T05:31:09.816Z,87.67
2019-04-14T05:33:42.575Z,87.14
2019-04-14T05:36:15.483Z,86.90
2019-04-14T05:38:47.732Z,86.87
2019-04-14T05:41:20.124Z,86.57
2019-04-14T05:43:55.715Z,85.92
2019-04-14T05:46:25.243Z,85.32
2019-04-14T05:48:57.864Z,85.43
2019-04-14T05:51:30.533Z,84.97
2019-04-14T05:54:03.319Z,84.55
2019-04-14T05:56:37.515Z,84.28
2019-04-14T05:59:08.900Z,84.41
2019-04-14T06:01:42.052Z,83.78
2019-04-14T06:04:15.654Z,83.66
2019-04-14T06:06:47.665Z,83.36
2019-04-14T06:09:19.372Z,83.83
2019-04-14T06:11:51.505Z,83.48
2019-04-14T06:14:23.141Z,83.48
2019-04-14T06:16:56.641Z,83.22
2019-04-14T06:19:37.074Z,83.62
2019-04-14T06:22:02.353Z,83.55
2019-04-14T06:24:33.853Z,84.02
2019-04-14T06:27:06.443Z,84.22
2019-04-14T06:29:39.161Z,83.94
2019-04-14T06:32:15.338Z,83.58
2019-04-14T06:34:49.002Z,83.76
2019-04-14T06:37:22.605Z,83.75
2019-04-14T06:39:55.830Z,83.36
2019-04-14T06:42:27.843Z,83.47
2019-04-14T06:44:59.641Z,83.31
2019-04-14T06:47:33.348Z,83.38
2019-04-14T06:50:07.188Z,83.24
2019-04-14T06:52:39.090Z,82.79
2019-04-14T06:55:11.332Z,82.36
2019-04-14T06:57:43.282Z,82.23
2019-04-14T07:00:15.635Z,81.97
2019-04-14T07:02:48.041Z,82.04
2019-04-14T07:05:19.868Z,82.28
2019-04-14T07:07:57.054Z,80.79
2019-04-14T07:10:25.246Z,80.54
2019-04-14T07:12:57.232Z,79.88
2019-04-14T07:15:29.471Z,80.33
2019-04-14T07:18:01.107Z,80.65
2019-04-14T07:20:33.401Z,80.76
2019-04-14T07:23:05.066Z,79.52
2019-04-14T07:25:36.913Z,80.11
2019-04-14T07:28:08.571Z,79.60
2019-04-14T07:30:51.057Z,80.16
2019-04-14T07:33:40.163Z,80.16
2019-04-14T07:36:29.582Z,80.23
2019-04-14T07:39:06.077Z,80.31
2019-04-14T07:41:54.344Z,81.18
2019-04-14T07:44:27.701Z,81.17
2019-04-14T07:47:07.251Z,80.91
2019-04-14T07:49:56.690Z,80.19
2019-04-14T07:52:46.385Z,80.89
2019-04-14T07:55:28.514Z,79.87
2019-04-14T07:58:18.249Z,80.27
2019-04-14T08:00:52.121Z,80.24
2019-04-14T08:03:44.512Z,80.35
2019-04-14T08:06:16.434Z,79.87
2019-04-14T08:08:48.844Z,79.61
2019-04-14T08:11:21.729Z,79.11
2019-04-14T08:13:53.591Z,77.94
2019-04-14T08:16:25.450Z,77.10
2019-04-14T08:18:57.161Z,77.25
2019-04-14T08:21:28.974Z,77.29
2019-04-14T08:24:01.131Z,77.96
2019-04-14T08:26:33.622Z,77.79
2019-04-14T08:29:05.452Z,77.25
2019-04-14T08:31:37.130Z,78.32
2019-04-14T08:34:09.501Z,77.88
2019-04-14T08:36:40.990Z,76.71
2019-04-14T08:39:13.112Z,76.53
2019-04-14T08:41:55.236Z,76.77
2019-04-14T08:44:31.373Z,77.24
2019-04-14T08:47:16.239Z,76.09
2019-04-14T08:49:49.887Z,76.02
2019-04-14T08:52:38.608Z,76.50
2019-04-14T08:55:15.003Z,76.53
2019-04-14T08:57:54.163Z,77.69
2019-04-14T09:00:30.411Z,77.50
2019-04-14T09:03:19.734Z,76.79
2019-04-14T09:05:53.299Z,76.46
2019-04-14T09:08:26.637Z,75.57
2019-04-14T09:11:03.205Z,76.52
2019-04-14T09:13:35.893Z,77.16
2019-04-14T09:16:08.044Z,76.95
2019-04-14T09:18:40.985Z,76.97
2019-04-14T09:21:12.944Z,76.62
2019-04-14T09:23:44.850Z,76.68
2019-04-14T09:26:16.920Z,76.56
2019-04-14T09:28:48.727Z,76.47
2019-04-14T09:31:20.844Z,77.08
2019-04-14T09:33:52.500Z,77.41
2019-04-14T09:36:24.266Z,77.35
2019-04-14T09:38:56.115Z,77.46
2019-04-14T09:41:28.895Z,77.66
2019-04-14T09:44:00.649Z,77.77
2019-04-14T09:46:32.456Z,78.00
2019-04-14T09:49:04.171Z,77.27
2019-04-14T09:51:36.040Z,77.52
2019-04-14T09:54:07.815Z,76.67
2019-04-14T09:56:39.747Z,76.95
2019-04-14T09:59:11.397Z,76.49
2019-04-14T10:01:44.582Z,76.30
2019-04-14T10:04:16.456Z,76.75
2019-04-14T10:06:48.246Z,77.01
2019-04-14T10:09:21.104Z,77.01
2019-04-14T10:11:56.263Z,76.55
2019-04-14T10:14:26.486Z,75.65
2019-04-14T10:17:01.197Z,75.04
2019-04-14T10:19:31.990Z,74.76
2019-04-14T10:22:04.934Z,75.26
2019-04-14T10:24:36.959Z,75.14
2019-04-14T10:27:09.882Z,75.07
2019-04-14T10:29:41.509Z,74.63
2019-04-14T10:32:13.891Z,74.26
2019-04-14T10:34:45.979Z,73.61
2019-04-14T10:37:17.937Z,73.31
2019-04-14T10:39:49.658Z,72.49
2019-04-14T10:42:21.797Z,72.13
2019-04-14T10:44:54.193Z,71.77
2019-04-14T10:47:26.263Z,71.42
2019-04-14T10:49:57.874Z,71.55
2019-04-14T10:52:29.906Z,72.43
2019-04-14T10:55:01.643Z,73.17
2019-04-14T10:57:34.564Z,73.37
2019-04-14T11:00:09.886Z,72.80
2019-04-14T11:02:41.705Z,72.00
2019-04-14T11:05:13.819Z,72.96
2019-04-14T11:07:45.392Z,73.07
2019-04-14T11:10:17.412Z,73.11
2019-04-14T11:12:49.382Z,73.42
2019-04-14T11:15:21.735Z,72.17
2019-04-14T11:17:53.394Z,71.96
2019-04-14T11:20:27.101Z,72.90
2019-04-14T11:23:03.414Z,73.54
2019-04-14T11:25:33.034Z,73.66
2019-04-14T11:28:04.745Z,74.11
2019-04-14T11:30:36.792Z,73.89
2019-04-14T11:33:10.159Z,72.96
2019-04-14T11:35:49.706Z,72.10
2019-04-14T11:38:26.056Z,71.75
2019-04-14T11:40:59.276Z,71.47
2019-04-14T11:43:31.424Z,71.16
2019-04-14T11:46:04.232Z,71.14
2019-04-14T11:48:36.497Z,70.99
2019-04-14T11:51:08.362Z,71.22
2019-04-14T11:53:40.577Z,71.41
2019-04-14T11:56:12.323Z,71.35
2019-04-14T11:58:44.059Z,71.69
2019-04-14T12:01:34.043Z,72.20
2019-04-14T12:04:10.498Z,73.21
2019-04-14T12:07:02.093Z,72.59
2019-04-14T12:09:44.385Z,72.04
2019-04-14T12:12:15.988Z,71.92
2019-04-14T12:14:48.099Z,72.09
2019-04-14T12:17:19.814Z,72.54
2019-04-14T12:19:53.063Z,72.19
2019-04-14T12:22:25.507Z,71.59
2019-04-14T12:24:57.385Z,72.09
2019-04-14T12:27:29.360Z,72.41
2019-04-14T12:30:01.367Z,72.48
2019-04-14T12:32:33.605Z,72.72
2019-04-14T12:35:06.193Z,73.31
2019-04-14T12:37:37.895Z,73.50
2019-04-14T12:40:10.612Z,73.11
2019-04-14T12:42:47.095Z,73.39
2019-04-14T12:45:29.317Z,73.46
2019-04-14T12:48:12.092Z,73.56
2019-04-14T12:50:44.668Z,73.35
2019-04-14T12:53:16.091Z,74.17
2019-04-14T12:55:47.911Z,74.08
2019-04-14T12:58:21.429Z,74.17
2019-04-14T13:00:54.714Z,73.81
2019-04-14T13:03:26.874Z,74.09
2019-04-14T13:05:58.737Z,74.34
2019-04-14T13:08:30.634Z,74.17
2019-04-14T13:11:02.464Z,74.08
2019-04-14T13:13:36.155Z,73.95
2019-04-14T13:16:08.243Z,73.86
2019-04-14T13:18:40.087Z,73.96
2019-04-14T13:21:12.198Z,74.31
2019-04-14T13:23:43.969Z,74.62
2019-04-14T13:26:16.091Z,74.51
2019-04-14T13:28:47.816Z,74.34
2019-04-14T13:31:19.998Z,74.32
2019-04-14T13:33:54.702Z,74.81
2019-04-14T13:36:25.769Z,74.88
2019-04-14T13:38:57.536Z,75.05
2019-04-14T13:41:29.391Z,75.11
2019-04-14T13:44:01.253Z,74.81
2019-04-14T13:46:33.171Z,75.39
2019-04-14T13:49:04.929Z,75.26
2019-04-14T13:51:36.948Z,74.99
2019-04-14T13:54:08.792Z,74.87
2019-04-14T13:56:40.709Z,75.03
2019-04-14T13:59:12.750Z,75.38
2019-04-14T14:01:45.002Z,75.57
2019-04-14T14:04:16.671Z,75.31
2019-04-14T14:06:48.872Z,74.63
2019-04-14T14:09:20.846Z,74.81
2019-04-14T14:12:03.746Z,74.76
2019-04-14T14:14:54.723Z,74.57
2019-04-14T14:17:39.900Z,74.62
2019-04-14T14:20:30.306Z,74.64
2019-04-14T14:23:06.670Z,74.74
2019-04-14T14:25:48.588Z,74.91
2019-04-14T14:28:20.297Z,75.43
2019-04-14T14:30:52.342Z,74.87
2019-04-14T14:33:24.180Z,75.23
2019-04-14T14:35:56.272Z,75.57
2019-04-14T14:38:28.034Z,76.18
2019-04-14T14:41:01.755Z,76.10
2019-04-14T14:43:33.709Z,76.17
2019-04-14T14:46:07.387Z,76.50
2019-04-14T14:48:40.473Z,76.69
2019-04-14T14:51:30.380Z,76.56
2019-04-14T14:54:02.134Z,76.84
2019-04-14T14:56:34.887Z,77.00
2019-04-14T14:59:06.803Z,76.99
2019-04-14T15:01:38.942Z,77.36
2019-04-14T15:04:10.901Z,78.03
2019-04-14T15:06:43.072Z,77.86
2019-04-14T15:09:14.825Z,78.12
2019-04-14T15:11:46.893Z,78.27
2019-04-14T15:14:18.581Z,78.31
2019-04-14T15:16:50.922Z,78.37
2019-04-14T15:19:22.473Z,78.45
2019-04-14T15:21:54.455Z,78.57
2019-04-14T15:24:26.105Z,79.01
2019-04-14T15:26:58.252Z,78.75
2019-04-14T15:29:29.908Z,78.89
2019-04-14T15:32:01.903Z,78.83
2019-04-14T15:34:33.540Z,78.83
2019-04-14T15:37:05.759Z,78.90
2019-04-14T15:39:37.865Z,79.09
2019-04-14T15:42:09.731Z,79.08
2019-04-14T15:44:41.416Z,79.09
2019-04-14T15:47:13.155Z,79.16
2019-04-14T15:49:44.993Z,78.88
2019-04-14T15:52:16.744Z,79.01
2019-04-14T15:54:48.719Z,79.11
2019-04-14T15:57:37.205Z,79.15
2019-04-14T16:00:23.291Z,79.30
2019-04-14T16:03:13.864Z,79.53
2019-04-14T16:05:47.263Z,79.17
2019-04-14T16:08:23.681Z,79.28
2019-04-14T16:10:59.859Z,79.44
2019-04-14T16:13:33.179Z,79.49
2019-04-14T16:16:24.509Z,79.38
2019-04-14T16:18:59.172Z,79.38
2019-04-14T16:21:31.182Z,79.29
2019-04-14T16:24:02.876Z,79.68
2019-04-14T16:26:51.724Z,79.63
2019-04-14T16:29:27.980Z,79.81
2019-04-14T16:32:17.034Z,80.00
2019-04-14T16:34:56.137Z,79.49
2019-04-14T16:37:28.024Z,79.31
2019-04-14T16:40:00.232Z,79.31
2019-04-14T16:42:32.302Z,79.33
2019-04-14T16:45:06.435Z,79.40
2019-04-14T16:47:40.090Z,79.65
2019-04-14T16:50:12.035Z,79.68
2019-04-14T16:52:51.584Z,79.79
2019-04-14T16:55:33.976Z,79.87
2019-04-14T16:58:19.949Z,79.65
2019-04-14T17:01:09.824Z,79.37
2019-04-14T17:03:42.055Z,79.64
2019-04-14T17:06:13.991Z,79.75
2019-04-14T17:08:45.589Z,79.56
2019-04-14T17:11:17.755Z,79.76
2019-04-14T17:13:51.126Z,79.61
2019-04-14T17:16:27.295Z,79.68
2019-04-14T17:19:03.329Z,79.53
2019-04-14T17:21:41.129Z,79.36
2019-04-14T17:24:29.805Z,79.66
2019-04-14T17:27:21.611Z,79.72
2019-04-14T17:30:10.024Z,79.97
2019-04-14T17:32:53.113Z,80.08
2019-04-14T17:35:38.545Z,79.79
2019-04-14T17:38:28.453Z,79.96
2019-04-14T17:41:08.158Z,80.13
2019-04-14T17:43:41.869Z,80.36
2019-04-14T17:46:17.932Z,80.39
2019-04-14T17:48:54.835Z,80.33
2019-04-14T17:51:28.524Z,80.34
2019-04-14T17:54:28.628Z,80.42
2019-04-14T17:56:55.647Z,80.61
2019-04-14T17:59:30.734Z,80.86
2019-04-14T18:02:04.228Z,81.00
2019-04-14T18:04:52.663Z,81.41
2019-04-14T18:07:26.365Z,81.39
2019-04-14T18:10:05.652Z,81.46
2019-04-14T18:12:38.953Z,81.60
2019-04-14T18:15:15.419Z,81.52
2019-04-14T18:17:54.732Z,81.60
2019-04-14T18:20:29.393Z,81.58
2019-04-14T18:23:01.218Z,81.88
2019-04-14T18:25:33.109Z,82.15
2019-04-14T18:28:09.119Z,82.16
2019-04-14T18:30:48.185Z,81.96
2019-04-14T18:33:31.073Z,82.54
2019-04-14T18:36:03.567Z,82.18
2019-04-14T18:38:36.796Z,82.28
2019-04-14T18:41:28.161Z,82.32
2019-04-14T18:44:16.587Z,82.69
2019-04-14T18:47:04.720Z,82.68
2019-04-14T18:49:54.636Z,82.69
2019-04-14T18:52:42.404Z,82.64
2019-04-14T18:55:21.820Z,82.79
2019-04-14T18:58:11.307Z,82.94
2019-04-14T19:00:47.852Z,83.17
2019-04-14T19:03:19.577Z,82.99
2019-04-14T19:05:51.646Z,82.50
2019-04-14T19:08:23.239Z,82.32
2019-04-14T19:14:00.424Z,82.59
2019-04-14T19:16:39.912Z,82.76
2019-04-14T19:19:08.780Z,82.83
2019-04-14T19:21:40.250Z,82.05
2019-04-14T19:24:12.263Z,82.37
2019-04-14T19:26:44.002Z,82.50
2019-04-14T19:29:16.032Z,82.49
2019-04-14T19:31:47.844Z,82.48
2019-04-14T19:34:19.668Z,81.80
2019-04-14T19:36:51.480Z,81.91
2019-04-14T19:39:24.147Z,82.10
2019-04-14T19:41:56.144Z,82.09
2019-04-14T19:44:28.101Z,82.08
2019-04-14T19:46:59.809Z,82.14
2019-04-14T19:49:31.907Z,82.22
2019-04-14T19:52:03.680Z,82.57
2019-04-14T19:54:35.458Z,82.52
2019-04-14T19:57:07.554Z,82.30
2019-04-14T19:59:39.515Z,82.16
2019-04-14T20:02:11.091Z,82.21
2019-04-14T20:04:43.050Z,81.75
2019-04-14T20:07:14.516Z,82.24
2019-04-14T20:09:46.256Z,81.75
2019-04-14T20:12:17.998Z,81.60
2019-04-14T20:14:49.886Z,81.54
2019-04-14T20:17:38.199Z,81.44
2019-04-14T20:20:12.339Z,81.97
2019-04-14T20:22:58.467Z,82.13
2019-04-14T20:25:48.349Z,81.97
2019-04-14T20:28:25.996Z,82.10
2019-04-14T20:30:58.996Z,81.87
2019-04-14T20:33:30.672Z,81.45
2019-04-14T20:36:05.225Z,81.59
2019-04-14T20:38:35.732Z,81.75
2019-04-14T20:41:07.515Z,81.79
2019-04-14T20:43:39.275Z,81.88
2019-04-14T20:46:11.166Z,81.97
2019-04-14T20:48:42.932Z,81.76
2019-04-14T20:51:14.681Z,81.87
2019-04-14T20:53:46.387Z,82.06
2019-04-14T20:56:18.192Z,81.81
2019-04-14T20:58:50.156Z,81.72
2019-04-14T21:01:21.989Z,81.97
2019-04-14T21:04:04.526Z,82.05
2019-04-14T21:06:40.489Z,82.55
2019-04-14T21:09:19.778Z,82.58
2019-04-14T21:11:52.885Z,82.58
2019-04-14T21:14:31.084Z,82.04
2019-04-14T21:17:07.787Z,81.47
2019-04-14T21:19:41.590Z,81.70
2019-04-14T21:22:15.058Z,81.75
2019-04-14T21:25:00.571Z,81.78
2019-04-14T21:27:52.470Z,81.83
2019-04-14T21:30:26.055Z,81.81
2019-04-14T21:33:08.334Z,81.98
2019-04-14T21:35:56.651Z,82.45
2019-04-14T21:38:45.203Z,83.28
2019-04-14T21:41:21.568Z,83.33
2019-04-14T21:43:53.480Z,84.10
2019-04-14T21:46:25.021Z,84.87
2019-04-14T21:48:57.195Z,85.05
2019-04-14T21:51:46.641Z,85.63
2019-04-14T21:54:19.663Z,86.54
2019-04-14T21:57:08.940Z,87.44
2019-04-14T21:59:48.541Z,88.03
2019-04-14T22:02:38.375Z,88.58
2019-04-14T22:05:12.554Z,88.85
2019-04-14T22:07:45.710Z,89.18
2019-04-14T22:10:19.420Z,89.43
2019-04-14T22:12:51.357Z,90.02
2019-04-14T22:15:23.541Z,90.26
2019-04-14T22:17:55.425Z,90.75
2019-04-14T22:20:28.078Z,90.87
2019-04-14T22:23:01.544Z,90.68
2019-04-14T22:25:33.155Z,90.94
2019-04-14T22:28:04.902Z,91.08
2019-04-14T22:30:36.709Z,91.09
2019-04-14T22:33:08.936Z,91.16
2019-04-14T22:35:40.510Z,91.32
2019-04-14T22:38:12.320Z,91.18
2019-04-14T22:40:44.166Z,91.39
2019-04-14T22:43:16.597Z,91.46
2019-04-14T22:45:48.393Z,91.46
2019-04-14T22:48:20.291Z,91.66
2019-04-14T22:50:51.831Z,91.58
2019-04-14T22:53:23.608Z,91.81
2019-04-14T22:55:55.548Z,91.62
2019-04-14T22:58:27.326Z,91.74
2019-04-14T23:01:10.024Z,91.69
2019-04-14T23:03:45.513Z,91.66
2019-04-14T23:06:27.175Z,91.70
2019-04-14T23:09:16.647Z,91.77
2019-04-14T23:11:50.246Z,91.95
2019-04-14T23:14:23.618Z,92.10
2019-04-14T23:17:08.747Z,92.04
2019-04-14T23:19:48.085Z,92.23
2019-04-14T23:22:28.599Z,92.32
2019-04-14T23:25:00.285Z,92.34
2019-04-14T23:27:32.045Z,92.22
2019-04-14T23:30:04.820Z,92.21
2019-04-14T23:32:36.554Z,92.14
2019-04-14T23:35:08.504Z,92.31
2019-04-14T23:37:40.166Z,92.35
2019-04-14T23:40:12.291Z,92.18
2019-04-14T23:42:44.645Z,92.36
2019-04-14T23:45:16.782Z,92.44
2019-04-14T23:47:48.386Z,92.31
2019-04-14T23:50:20.301Z,92.07
2019-04-14T23:52:51.855Z,91.87
2019-04-14T23:55:24.025Z,91.82
2019-04-14T23:57:58.942Z,91.86
